Time;durP1;ratioP1;P1;durP2;ratioP2;P2;SDS_P1;SDS_P2;PMS_P1;PMS_P2;Temp;Humidity;BMP_temperature;BMP_pressure;BME280_temperature;BME280_humidity;BME280_pressure;Samples;Min_cycle;Max_cycle;Signal;HPM_P1;HPM_P2
2022/10/09 00:00:18;;;;;;;5.40;3.27;;;8.50;99.90;;;;;;5029920;28;20612;-36
2022/10/09 00:02:44;;;;;;;5.30;3.43;;;8.60;99.90;;;;;;5030283;28;20281;-37
2022/10/09 00:05:09;;;;;;;5.67;3.57;;;8.50;99.90;;;;;;5030073;28;20213;-36
2022/10/09 00:07:35;;;;;;;4.50;3.60;;;8.10;99.90;;;;;;5029241;28;20201;-36
2022/10/09 00:10:01;;;;;;;4.40;3.83;;;8.40;99.90;;;;;;5030037;28;20209;-37
2022/10/09 00:12:27;;;;;;;6.73;4.57;;;8.30;99.90;;;;;;5030143;28;20229;-36
2022/10/09 00:14:53;;;;;;;5.97;4.40;;;8.30;99.90;;;;;;5029558;28;20525;-37
2022/10/09 00:17:18;;;;;;;5.23;3.93;;;8.20;99.90;;;;;;5030275;28;20628;-36
2022/10/09 00:19:44;;;;;;;6.20;3.57;;;8.10;99.90;;;;;;5030972;28;20664;-36
2022/10/09 00:22:10;;;;;;;5.83;4.00;;;8.00;99.90;;;;;;5030160;28;20186;-37
2022/10/09 00:24:35;;;;;;;4.40;3.80;;;8.20;99.90;;;;;;5028278;28;20244;-37
2022/10/09 00:27:01;;;;;;;3.87;3.40;;;8.20;99.90;;;;;;5030055;28;20606;-36
2022/10/09 00:29:26;;;;;;;7.03;3.70;;;8.40;99.90;;;;;;5029936;28;20190;-37
2022/10/09 00:31:52;;;;;;;5.40;3.53;;;8.40;99.90;;;;;;5029888;28;20202;-36
2022/10/09 00:34:18;;;;;;;17.27;4.37;;;7.90;99.90;;;;;;5029355;28;20244;-36
2022/10/09 00:36:43;;;;;;;3.97;3.60;;;8.10;99.90;;;;;;5029887;28;20198;-37
2022/10/09 00:39:09;;;;;;;4.57;4.17;;;8.00;99.90;;;;;;5029787;28;20218;-37
2022/10/09 00:41:34;;;;;;;3.80;3.30;;;8.10;99.90;;;;;;5029170;28;20839;-36
2022/10/09 00:44:42;;;;;;;5.83;4.30;;;8.00;99.90;;;;;;5027807;28;20210;-36
2022/10/09 00:47:17;;;;;;;5.40;4.07;;;7.90;99.90;;;;;;5029016;28;20526;-36
2022/10/09 00:49:43;;;;;;;8.13;3.70;;;7.80;99.90;;;;;;5029982;28;20432;-36
2022/10/09 00:52:10;;;;;;;6.30;3.87;;;8.00;99.90;;;;;;5033577;28;20431;-36
2022/10/09 00:54:39;;;;;;;5.53;4.30;;;8.00;99.90;;;;;;5025176;28;20441;-37
2022/10/09 00:57:04;;;;;;;4.83;3.90;;;8.40;99.90;;;;;;5033634;28;20487;-37
2022/10/09 00:59:31;;;;;;;5.43;4.10;;;8.40;99.90;;;;;;5033735;28;20468;-37
2022/10/09 01:01:57;;;;;;;8.53;4.47;;;8.50;99.90;;;;;;5032788;28;20190;-37
2022/10/09 01:04:22;;;;;;;4.83;3.73;;;8.60;99.90;;;;;;5032362;28;20429;-36
2022/10/09 01:07:09;;;;;;;5.90;3.73;;;8.50;99.90;;;;;;5033343;28;20282;-37
2022/10/09 01:09:52;;;;;;;5.63;3.87;;;8.30;99.90;;;;;;5033610;28;20219;-36
2022/10/09 01:12:36;;;;;;;8.23;3.70;;;8.30;99.90;;;;;;5032254;28;20424;-37
2022/10/09 01:15:13;;;;;;;6.20;3.93;;;8.10;99.90;;;;;;5033441;28;21008;-37
2022/10/09 01:18:03;;;;;;;3.90;3.50;;;8.20;99.90;;;;;;5033401;28;20421;-36
2022/10/09 01:20:31;;;;;;;6.40;3.63;;;7.90;99.90;;;;;;5034403;28;20468;-37
2022/10/09 01:23:02;;;;;;;5.87;3.20;;;7.90;99.90;;;;;;5032597;28;20425;-37
2022/10/09 01:25:33;;;;;;;4.33;3.70;;;7.70;99.90;;;;;;5033364;28;20417;-36
2022/10/09 01:28:01;;;;;;;3.90;3.50;;;7.60;99.90;;;;;;5033021;28;20413;-37
2022/10/09 01:30:28;;;;;;;5.23;3.40;;;7.60;99.90;;;;;;5033352;28;20424;-36
2022/10/09 01:32:54;;;;;;;7.63;3.87;;;7.60;99.90;;;;;;5032015;28;20770;-37
2022/10/09 01:35:21;;;;;;;7.83;4.80;;;7.70;99.90;;;;;;5033201;28;20526;-36
2022/10/09 01:37:49;;;;;;;4.33;3.93;;;8.00;99.90;;;;;;5032989;28;20437;-36
2022/10/09 01:40:16;;;;;;;6.90;4.77;;;7.70;99.90;;;;;;5033011;28;20564;-37
2022/10/09 01:42:42;;;;;;;6.73;3.97;;;8.20;99.90;;;;;;5032176;28;21181;-36
2022/10/09 01:45:09;;;;;;;7.27;4.07;;;8.20;99.90;;;;;;5033204;28;20520;-37
2022/10/09 01:47:36;;;;;;;4.00;3.60;;;7.80;99.90;;;;;;5032810;28;20440;-37
2022/10/09 01:50:30;;;;;;;4.57;4.00;;;7.60;99.90;;;;;;5033089;28;20433;-37
2022/10/09 01:53:06;;;;;;;7.60;4.40;;;7.60;99.90;;;;;;5031801;28;20468;-37
2022/10/09 01:55:49;;;;;;;5.87;4.10;;;7.40;99.90;;;;;;5031462;28;20429;-37
2022/10/09 01:58:29;;;;;;;7.10;4.07;;;7.50;99.90;;;;;;5032564;28;20440;-37
2022/10/09 02:01:05;;;;;;;4.37;3.60;;;7.70;99.90;;;;;;5032744;28;20405;-37
2022/10/09 02:03:33;;;;;;;5.20;4.07;;;7.80;99.90;;;;;;5031749;28;20436;-37
2022/10/09 02:06:01;;;;;;;5.27;4.20;;;8.00;99.90;;;;;;5032420;28;21217;-38
2022/10/09 02:08:29;;;;;;;4.93;4.40;;;7.90;99.90;;;;;;5032053;28;20533;-36
2022/10/09 02:10:57;;;;;;;8.70;3.90;;;8.00;99.90;;;;;;5032598;28;20425;-37
2022/10/09 02:13:23;;;;;;;7.37;4.20;;;7.50;99.90;;;;;;5031851;28;20449;-37
2022/10/09 02:16:05;;;;;;;9.60;4.73;;;7.70;99.90;;;;;;5032313;28;20457;-37
2022/10/09 02:18:46;;;;;;;5.97;3.90;;;7.60;99.90;;;;;;5032428;28;20431;-37
2022/10/09 02:21:39;;;;;;;7.30;3.97;;;7.50;99.90;;;;;;5033740;28;20421;-37
2022/10/09 02:24:09;;;;;;;6.53;3.53;;;7.50;99.90;;;;;;5023702;28;20468;-37
2022/10/09 02:26:36;;;;;;;5.33;3.90;;;7.30;99.90;;;;;;5032251;28;20587;-36
2022/10/09 02:29:02;;;;;;;6.03;4.20;;;7.20;99.90;;;;;;5032105;28;20504;-37
2022/10/09 02:31:30;;;;;;;10.17;3.93;;;7.10;99.90;;;;;;5032108;28;20421;-36
2022/10/09 02:34:18;;;;;;;4.33;3.93;;;7.10;99.90;;;;;;5031416;28;20499;-37
2022/10/09 02:36:44;;;;;;;6.03;4.17;;;7.30;99.90;;;;;;5031921;28;20904;-37
2022/10/09 02:39:10;;;;;;;5.67;4.33;;;7.40;99.90;;;;;;5032018;28;20477;-36
2022/10/09 02:41:35;;;;;;;8.50;4.50;;;7.50;99.90;;;;;;5032078;28;20421;-37
2022/10/09 02:44:02;;;;;;;10.70;4.30;;;7.40;99.90;;;;;;5031211;28;20202;-37
2022/10/09 02:46:28;;;;;;;4.50;3.87;;;7.50;99.90;;;;;;5031959;28;20661;-37
2022/10/09 02:48:54;;;;;;;6.87;3.77;;;7.40;99.90;;;;;;5031694;28;20479;-37
2022/10/09 02:51:20;;;;;;;7.50;3.80;;;7.50;99.90;;;;;;5031317;28;20990;-37
2022/10/09 02:53:45;;;;;;;5.30;3.50;;;7.50;99.90;;;;;;5031115;28;20440;-37
2022/10/09 02:56:11;;;;;;;5.00;4.50;;;7.30;99.90;;;;;;5028792;28;20718;-36
2022/10/09 02:58:38;;;;;;;5.10;4.30;;;7.30;99.90;;;;;;5031469;28;20221;-36
2022/10/09 03:01:04;;;;;;;6.00;4.00;;;7.20;99.90;;;;;;5031439;28;20433;-36
2022/10/09 03:03:30;;;;;;;9.97;4.67;;;7.10;99.90;;;;;;5030812;28;20437;-36
2022/10/09 03:06:03;;;;;;;4.60;3.93;;;6.90;99.90;;;;;;5030844;28;20470;-36
2022/10/09 03:08:29;;;;;;;5.10;3.80;;;7.70;99.90;;;;;;5031442;28;20800;-37
2022/10/09 03:10:55;;;;;;;8.67;4.00;;;7.80;99.90;;;;;;5031295;28;20510;-36
2022/10/09 03:13:21;;;;;;;6.67;4.20;;;7.70;99.90;;;;;;5030069;28;20513;-36
2022/10/09 03:15:47;;;;;;;7.90;4.07;;;7.60;99.90;;;;;;5029919;28;20516;-36
2022/10/09 03:18:12;;;;;;;8.30;4.20;;;7.80;99.90;;;;;;5031002;28;20241;-36
2022/10/09 03:20:38;;;;;;;5.20;3.60;;;7.50;99.90;;;;;;5031639;28;20210;-36
2022/10/09 03:23:04;;;;;;;6.60;4.50;;;7.30;99.90;;;;;;5028199;28;20190;-37
2022/10/09 03:25:30;;;;;;;4.80;4.10;;;7.30;99.90;;;;;;5031044;28;20428;-37
2022/10/09 03:27:55;;;;;;;7.37;4.27;;;7.10;99.90;;;;;;5029525;28;20190;-37
2022/10/09 03:30:21;;;;;;;6.17;4.37;;;7.10;99.90;;;;;;5031184;28;20186;-37
2022/10/09 03:32:46;;;;;;;4.97;3.57;;;7.00;99.90;;;;;;5029965;28;20198;-36
2022/10/09 03:35:12;;;;;;;7.93;4.03;;;6.90;99.90;;;;;;5025616;28;20300;-36
2022/10/09 03:37:37;;;;;;;4.80;3.50;;;7.10;99.90;;;;;;5030791;28;20714;-37
2022/10/09 03:40:04;;;;;;;6.10;4.47;;;7.20;99.90;;;;;;5030988;28;20259;-36
2022/10/09 03:42:29;;;;;;;6.67;4.50;;;7.20;99.90;;;;;;5030460;28;20192;-37
2022/10/09 03:44:56;;;;;;;5.43;4.20;;;7.20;99.90;;;;;;5030384;28;20787;-36
2022/10/09 03:47:22;;;;;;;5.57;3.73;;;7.30;99.90;;;;;;5030426;28;20273;-36
2022/10/09 03:49:47;;;;;;;5.30;4.20;;;7.40;99.90;;;;;;5030668;28;20504;-36
2022/10/09 03:52:13;;;;;;;7.80;3.90;;;7.40;99.90;;;;;;5026728;28;20206;-36
2022/10/09 03:54:39;;;;;;;6.77;4.03;;;7.30;99.90;;;;;;5011378;28;20221;-37
2022/10/09 03:57:04;;;;;;;4.60;3.90;;;7.10;99.90;;;;;;5030399;28;20201;-37
2022/10/09 03:59:30;;;;;;;5.43;4.00;;;7.10;99.90;;;;;;5032439;28;20217;-37
2022/10/09 04:01:55;;;;;;;5.77;4.10;;;7.10;99.90;;;;;;5030285;28;20274;-36
2022/10/09 04:04:21;;;;;;;6.83;4.40;;;7.20;99.90;;;;;;5029454;28;20730;-36
2022/10/09 04:06:46;;;;;;;6.43;4.03;;;7.40;99.90;;;;;;5030515;28;20182;-37
2022/10/09 04:09:12;;;;;;;6.10;3.70;;;7.20;99.90;;;;;;5030212;28;20214;-37
2022/10/09 04:11:38;;;;;;;5.83;4.00;;;7.00;99.90;;;;;;5030484;28;20194;-36
2022/10/09 04:14:03;;;;;;;5.73;4.10;;;7.00;99.90;;;;;;5029425;28;20194;-37
2022/10/09 04:16:29;;;;;;;6.80;4.00;;;6.90;99.90;;;;;;5028912;28;20197;-36
2022/10/09 04:18:55;;;;;;;5.47;4.07;;;6.90;99.90;;;;;;5029789;28;20216;-36
2022/10/09 04:21:20;;;;;;;4.03;3.20;;;6.70;99.90;;;;;;5030320;28;20270;-37
2022/10/09 04:23:46;;;;;;;7.57;5.13;;;6.70;99.90;;;;;;5028474;28;20261;-36
2022/10/09 04:26:12;;;;;;;5.23;4.67;;;6.90;99.90;;;;;;5027895;28;20222;-37
2022/10/09 04:28:38;;;;;;;5.80;4.53;;;7.00;99.90;;;;;;5031786;28;20855;-37
2022/10/09 04:31:04;;;;;;;5.67;4.23;;;6.90;99.90;;;;;;5029413;28;20413;-37
2022/10/09 04:33:30;;;;;;;5.23;4.03;;;7.00;99.90;;;;;;5027894;28;20410;-36
2022/10/09 04:35:56;;;;;;;7.90;4.13;;;7.10;99.90;;;;;;5030388;28;20436;-36
2022/10/09 04:38:23;;;;;;;4.30;3.60;;;7.10;99.90;;;;;;5029527;28;20477;-36
2022/10/09 04:40:57;;;;;;;4.73;3.50;;;6.80;99.90;;;;;;5029655;28;20503;-37
2022/10/09 04:43:23;;;;;;;4.63;3.77;;;6.80;99.90;;;;;;5028115;28;20432;-36
2022/10/09 04:45:48;;;;;;;4.97;3.90;;;7.00;99.90;;;;;;5030061;28;20425;-36
2022/10/09 04:48:14;;;;;;;6.47;4.20;;;7.30;99.90;;;;;;5028949;28;20193;-37
2022/10/09 04:50:39;;;;;;;6.70;4.77;;;7.30;99.90;;;;;;5026297;28;20186;-37
2022/10/09 04:53:05;;;;;;;8.70;5.80;;;7.30;99.90;;;;;;5027313;28;20185;-37
2022/10/09 04:55:31;;;;;;;10.90;5.70;;;7.00;99.90;;;;;;5029412;28;20179;-37
2022/10/09 04:57:56;;;;;;;6.30;5.17;;;6.90;99.90;;;;;;5029183;28;20595;-37
2022/10/09 05:00:22;;;;;;;7.20;5.00;;;6.80;99.90;;;;;;5029211;28;20293;-36
2022/10/09 05:02:47;;;;;;;6.37;4.50;;;6.60;99.90;;;;;;5027853;28;20239;-37
2022/10/09 05:05:13;;;;;;;9.20;5.27;;;6.70;99.90;;;;;;5029278;28;20209;-37
2022/10/09 05:07:39;;;;;;;7.53;5.10;;;6.60;99.90;;;;;;5029786;28;20329;-37
2022/10/09 05:10:05;;;;;;;9.57;5.33;;;6.80;99.90;;;;;;5029540;28;20205;-37
2022/10/09 05:12:31;;;;;;;10.57;6.40;;;6.70;99.90;;;;;;5029469;28;20198;-38
2022/10/09 05:14:56;;;;;;;8.43;5.93;;;6.60;99.90;;;;;;5028851;28;20780;-36
2022/10/09 05:17:22;;;;;;;12.60;7.03;;;6.60;99.90;;;;;;5028305;28;20191;-37
2022/10/09 05:19:47;;;;;;;10.27;6.30;;;6.50;99.90;;;;;;5030014;28;20201;-37
2022/10/09 05:22:13;;;;;;;10.60;6.33;;;6.50;99.90;;;;;;5035016;28;20195;-36
2022/10/09 05:24:39;;;;;;;9.70;6.60;;;6.50;99.90;;;;;;5037975;28;20239;-36
2022/10/09 05:27:04;;;;;;;9.20;7.03;;;6.60;99.90;;;;;;5049508;28;20327;-37
2022/10/09 05:29:31;;;;;;;7.33;6.13;;;6.80;99.90;;;;;;5049110;28;20193;-37
2022/10/09 05:31:56;;;;;;;9.60;6.67;;;6.80;99.90;;;;;;5049246;28;20190;-37
2022/10/09 05:34:22;;;;;;;12.67;6.53;;;6.50;99.90;;;;;;5047438;28;20933;-37
2022/10/09 05:36:48;;;;;;;9.83;6.50;;;6.60;99.90;;;;;;5050871;28;20231;-37
2022/10/09 05:39:14;;;;;;;7.50;6.50;;;6.70;99.90;;;;;;5053024;28;20217;-36
2022/10/09 05:41:40;;;;;;;10.23;6.27;;;6.60;99.90;;;;;;5053135;28;20267;-37
2022/10/09 05:44:06;;;;;;;9.63;6.20;;;6.70;99.90;;;;;;5052040;28;20451;-37
2022/10/09 05:46:31;;;;;;;9.67;5.47;;;6.40;99.90;;;;;;5053036;28;20259;-36
2022/10/09 05:49:00;;;;;;;7.50;5.83;;;6.30;99.90;;;;;;5052787;28;20686;-38
2022/10/09 05:51:36;;;;;;;9.67;6.43;;;6.40;99.90;;;;;;5040474;28;20289;-36
2022/10/09 05:54:03;;;;;;;10.90;6.50;;;6.40;99.90;;;;;;5030310;28;20463;-38
2022/10/09 05:56:36;;;;;;;7.20;6.17;;;6.10;99.90;;;;;;5027835;28;20428;-36
2022/10/09 05:59:02;;;;;;;6.23;5.10;;;6.10;99.90;;;;;;5032550;28;20464;-37
2022/10/09 06:01:31;;;;;;;7.63;5.23;;;6.10;99.90;;;;;;5032693;28;20520;-38
2022/10/09 06:03:58;;;;;;;8.10;5.40;;;6.20;99.90;;;;;;5032073;28;20248;-37
2022/10/09 06:06:26;;;;;;;9.17;5.07;;;6.40;99.90;;;;;;5032404;28;20441;-36
2022/10/09 06:08:52;;;;;;;6.83;5.20;;;6.60;99.90;;;;;;5032494;28;20513;-37
2022/10/09 06:11:23;;;;;;;6.40;5.10;;;6.50;99.90;;;;;;5032509;28;20433;-36
2022/10/09 06:13:50;;;;;;;4.60;4.20;;;6.70;99.90;;;;;;5027937;28;20422;-37
2022/10/09 06:16:17;;;;;;;6.37;5.23;;;6.50;99.90;;;;;;5031802;28;20424;-36
2022/10/09 06:18:45;;;;;;;8.70;4.53;;;6.70;99.90;;;;;;5032120;28;22385;-37
2022/10/09 06:21:13;;;;;;;7.00;3.93;;;6.90;99.90;;;;;;5032218;28;20425;-37
2022/10/09 06:23:39;;;;;;;6.17;4.23;;;7.00;99.90;;;;;;5018255;28;20428;-37
2022/10/09 06:26:07;;;;;;;7.00;4.23;;;7.20;99.90;;;;;;5032466;28;20433;-37
2022/10/09 06:28:34;;;;;;;6.33;3.90;;;6.90;99.90;;;;;;5032156;28;20210;-37
2022/10/09 06:31:00;;;;;;;8.50;4.40;;;7.50;99.90;;;;;;5031294;28;20428;-37
2022/10/09 06:33:32;;;;;;;6.30;4.77;;;7.60;99.90;;;;;;5032003;28;20439;-37
2022/10/09 06:36:06;;;;;;;5.07;4.43;;;7.60;99.90;;;;;;5030472;28;20424;-37
2022/10/09 06:38:33;;;;;;;9.30;4.30;;;7.80;99.90;;;;;;5030558;28;20428;-37
2022/10/09 06:41:07;;;;;;;5.00;3.73;;;7.90;99.90;;;;;;5046805;28;20420;-37
2022/10/09 06:43:33;;;;;;;5.30;3.47;;;8.20;99.90;;;;;;5051047;28;20784;-37
2022/10/09 06:46:03;;;;;;;11.70;3.87;;;8.30;99.90;;;;;;5051940;28;20432;-37
2022/10/09 06:48:30;;;;;;;6.60;3.83;;;8.00;99.90;;;;;;5020425;28;20516;-37
2022/10/09 06:51:16;;;;;;;7.07;4.23;;;8.40;99.90;;;;;;5023045;28;20454;-37
2022/10/09 06:53:48;;;;;;;5.40;3.50;;;8.40;99.90;;;;;;5032636;28;20449;-38
2022/10/09 06:56:14;;;;;;;5.90;4.10;;;8.60;99.90;;;;;;5034311;28;20451;-37
2022/10/09 06:58:40;;;;;;;5.33;3.70;;;8.50;99.90;;;;;;5043018;28;20503;-37
2022/10/09 07:01:12;;;;;;;5.80;3.57;;;8.60;99.90;;;;;;5045222;28;20519;-37
2022/10/09 07:03:41;;;;;;;4.37;3.40;;;8.70;99.90;;;;;;5043562;28;20444;-37
2022/10/09 07:06:12;;;;;;;3.50;3.20;;;8.80;99.90;;;;;;5039544;28;20472;-38
2022/10/09 07:08:40;;;;;;;6.83;3.70;;;9.00;99.90;;;;;;5030806;28;20444;-37
2022/10/09 07:11:11;;;;;;;7.30;3.90;;;8.90;99.90;;;;;;5024452;28;20453;-37
2022/10/09 07:13:38;;;;;;;5.13;3.10;;;9.00;99.90;;;;;;5031112;28;20484;-37
2022/10/09 07:16:04;;;;;;;4.37;3.60;;;9.20;99.90;;;;;;5033319;28;20449;-37
2022/10/09 07:18:32;;;;;;;6.27;2.73;;;9.30;99.90;;;;;;5027296;28;20457;-37
2022/10/09 07:21:01;;;;;;;6.37;2.97;;;9.50;99.90;;;;;;5038270;28;20455;-37
2022/10/09 07:23:28;;;;;;;5.77;3.77;;;9.70;99.90;;;;;;5040479;28;20515;-37
2022/10/09 07:25:53;;;;;;;5.10;3.10;;;9.90;99.90;;;;;;5038379;28;21169;-37
2022/10/09 07:28:19;;;;;;;5.77;3.90;;;10.10;99.90;;;;;;5031095;28;20453;-36
2022/10/09 07:30:45;;;;;;;6.67;3.80;;;10.30;99.90;;;;;;5043454;28;20230;-37
2022/10/09 07:33:10;;;;;;;6.20;2.50;;;10.60;99.90;;;;;;5032137;28;20221;-37
2022/10/09 07:35:36;;;;;;;5.10;3.20;;;10.90;99.90;;;;;;5049925;28;20229;-37
2022/10/09 07:38:02;;;;;;;4.90;2.53;;;11.10;99.90;;;;;;5027816;28;20195;-37
2022/10/09 07:40:28;;;;;;;4.47;3.00;;;11.40;99.90;;;;;;5031327;28;20238;-37
2022/10/09 07:42:53;;;;;;;6.00;2.90;;;11.70;99.90;;;;;;5036926;28;20579;-38
2022/10/09 07:45:19;;;;;;;5.07;2.70;;;11.90;99.90;;;;;;5037867;28;20229;-37
2022/10/09 07:47:44;;;;;;;4.57;2.20;;;12.10;99.90;;;;;;5037348;28;20674;-37
2022/10/09 07:50:10;;;;;;;6.07;2.60;;;12.30;99.90;;;;;;5038021;28;20229;-36
2022/10/09 07:52:36;;;;;;;5.20;2.80;;;12.40;99.90;;;;;;5034790;28;20206;-37
2022/10/09 07:55:01;;;;;;;5.80;2.70;;;12.60;99.90;;;;;;5035302;28;20234;-38
2022/10/09 07:57:27;;;;;;;3.23;2.30;;;12.70;99.90;;;;;;5033943;28;20245;-37
2022/10/09 07:59:54;;;;;;;4.23;2.50;;;12.80;99.90;;;;;;5031823;28;20604;-37
2022/10/09 08:02:19;;;;;;;3.03;2.40;;;13.00;99.90;;;;;;5040484;28;20734;-37
2022/10/09 08:04:45;;;;;;;3.77;2.60;;;13.20;99.90;;;;;;5022692;28;20478;-37
2022/10/09 08:07:10;;;;;;;3.20;2.10;;;13.40;99.90;;;;;;5035012;28;20218;-37
2022/10/09 08:09:36;;;;;;;4.73;2.30;;;13.60;99.90;;;;;;5044700;28;20229;-37
2022/10/09 08:12:02;;;;;;;7.90;3.67;;;13.70;99.90;;;;;;5041479;28;20293;-37
2022/10/09 08:14:27;;;;;;;8.50;2.00;;;13.80;99.90;;;;;;5045283;28;20221;-37
2022/10/09 08:16:53;;;;;;;6.20;2.23;;;13.90;99.90;;;;;;5037070;28;20206;-37
2022/10/09 08:19:19;;;;;;;3.90;2.43;;;14.10;99.90;;;;;;5037941;28;20265;-37
2022/10/09 08:21:44;;;;;;;3.63;2.17;;;14.20;99.90;;;;;;5039922;28;20738;-37
2022/10/09 08:24:11;;;;;;;4.63;2.10;;;14.20;99.90;;;;;;5032351;28;20300;-37
2022/10/09 08:26:37;;;;;;;4.50;2.40;;;14.30;99.90;;;;;;5028693;28;20221;-37
2022/10/09 08:29:05;;;;;;;4.23;2.43;;;14.50;99.90;;;;;;5037095;28;20479;-37
2022/10/09 08:31:31;;;;;;;4.60;2.17;;;14.50;99.90;;;;;;5033347;28;20257;-38
2022/10/09 08:33:59;;;;;;;3.30;1.63;;;14.50;99.90;;;;;;5026908;28;20484;-37
2022/10/09 08:36:25;;;;;;;4.50;2.40;;;14.60;99.90;;;;;;5031907;28;20234;-36
2022/10/09 08:38:52;;;;;;;4.77;2.10;;;14.70;99.90;;;;;;5023712;28;20481;-36
2022/10/09 08:41:42;;;;;;;3.67;1.90;;;14.70;99.90;;;;;;5030516;28;20495;-38
2022/10/09 08:44:30;;;;;;;4.33;1.80;;;14.70;99.90;;;;;;5028465;28;20502;-37
2022/10/09 08:47:06;;;;;;;4.53;2.10;;;14.80;99.90;;;;;;5020742;28;20461;-37
2022/10/09 08:50:08;;;;;;;3.33;2.03;;;15.00;99.90;;;;;;5028487;28;20501;-38
2022/10/09 08:52:38;;;;;;;6.10;2.70;;;14.80;99.90;;;;;;5032268;28;20955;-38
2022/10/09 08:55:19;;;;;;;4.80;2.50;;;15.00;99.90;;;;;;5025581;28;20449;-37
2022/10/09 08:57:49;;;;;;;2.20;1.90;;;15.10;99.90;;;;;;5029936;28;20429;-37
2022/10/09 09:00:18;;;;;;;6.83;2.00;;;15.20;99.90;;;;;;5025816;28;20555;-37
2022/10/09 09:03:10;;;;;;;3.80;1.87;;;15.30;99.90;;;;;;5030793;28;20475;-37
2022/10/09 09:05:49;;;;;;;6.10;2.00;;;15.50;99.90;;;;;;5030623;28;20949;-37
2022/10/09 09:08:15;;;;;;;4.73;2.00;;;15.60;99.90;;;;;;5026951;28;20866;-38
2022/10/09 09:11:06;;;;;;;4.57;2.20;;;15.50;99.90;;;;;;5029627;28;21220;-37
2022/10/09 09:13:42;;;;;;;4.53;2.10;;;15.50;99.90;;;;;;5033099;28;20499;-37
2022/10/09 09:16:25;;;;;;;3.90;2.00;;;15.60;99.90;;;;;;5030806;28;20523;-37
2022/10/09 09:19:35;;;;;;;4.60;1.90;;;15.70;99.90;;;;;;5035048;28;21164;-37
2022/10/09 09:22:01;;;;;;;4.70;2.10;;;15.80;99.90;;;;;;5030632;28;20436;-38
2022/10/09 09:24:36;;;;;;;4.50;2.37;;;15.90;99.90;;;;;;5029944;28;20429;-37
2022/10/09 09:27:09;;;;;;;3.80;2.20;;;16.00;99.90;;;;;;5035267;28;20505;-37
2022/10/09 09:29:57;;;;;;;5.93;2.40;;;16.20;99.90;;;;;;5035362;28;20452;-37
2022/10/09 09:32:27;;;;;;;4.27;2.00;;;16.30;99.90;;;;;;5033090;28;20516;-36
2022/10/09 09:35:02;;;;;;;4.43;2.53;;;16.40;99.90;;;;;;5030506;28;20480;-37
2022/10/09 09:37:27;;;;;;;6.10;2.50;;;16.50;99.90;;;;;;5034129;28;20480;-37
2022/10/09 09:39:53;;;;;;;6.73;2.60;;;16.60;99.90;;;;;;5037096;28;21061;-37
2022/10/09 09:42:20;;;;;;;4.80;1.87;;;16.60;99.90;;;;;;5033327;28;20260;-37
2022/10/09 09:44:57;;;;;;;6.53;2.33;;;16.80;99.90;;;;;;5032638;28;20205;-37
2022/10/09 09:47:28;;;;;;;3.83;1.90;;;16.70;99.90;;;;;;5032943;28;20449;-37
2022/10/09 09:50:00;;;;;;;4.23;2.20;;;16.60;99.90;;;;;;5049495;28;20419;-37
2022/10/09 09:52:30;;;;;;;10.40;2.80;;;16.80;99.90;;;;;;5017471;28;21024;-37
2022/10/09 09:54:57;;;;;;;5.77;2.60;;;16.90;99.90;;;;;;5031482;28;20425;-37
2022/10/09 09:57:36;;;;;;;3.13;2.17;;;17.00;99.90;;;;;;5032825;28;20512;-38
2022/10/09 10:00:16;;;;;;;9.10;2.63;;;17.10;99.90;;;;;;5032616;28;20460;-37
2022/10/09 10:02:41;;;;;;;5.00;2.50;;;17.30;99.90;;;;;;5032243;28;20424;-37
2022/10/09 10:05:22;;;;;;;4.03;2.20;;;17.40;99.90;;;;;;5032311;28;20449;-37
2022/10/09 10:07:49;;;;;;;4.83;3.20;;;17.40;99.90;;;;;;5032654;28;20265;-37
2022/10/09 10:10:22;;;;;;;6.53;2.20;;;17.40;99.90;;;;;;5032416;28;20437;-37
2022/10/09 10:12:50;;;;;;;2.40;1.90;;;17.50;99.90;;;;;;5031969;28;20415;-37
2022/10/09 10:15:36;;;;;;;4.37;2.00;;;17.60;99.90;;;;;;5031698;28;20420;-37
2022/10/09 10:18:03;;;;;;;7.60;2.97;;;17.50;99.90;;;;;;5031719;28;20512;-38
2022/10/09 10:20:31;;;;;;;5.50;2.10;;;17.50;99.70;;;;;;5031946;28;20515;-37
2022/10/09 10:22:59;;;;;;;3.37;1.70;;;17.40;99.90;;;;;;5030231;28;20521;-37
2022/10/09 10:25:30;;;;;;;7.53;1.83;;;17.40;99.50;;;;;;5032107;28;20424;-37
2022/10/09 10:28:19;;;;;;;3.33;1.87;;;17.30;99.90;;;;;;5031969;28;20421;-37
2022/10/09 10:30:46;;;;;;;7.10;1.77;;;17.30;99.40;;;;;;5031852;28;20425;-37
2022/10/09 10:33:21;;;;;;;4.37;1.77;;;17.30;99.80;;;;;;5031324;28;20421;-37
2022/10/09 10:35:52;;;;;;;3.70;2.07;;;17.20;99.30;;;;;;5031759;28;20451;-38
2022/10/09 10:38:32;;;;;;;3.20;1.90;;;17.10;99.40;;;;;;5032035;28;20433;-37
2022/10/09 10:41:28;;;;;;;4.20;2.00;;;17.00;99.00;;;;;;5031695;28;20460;-37
2022/10/09 10:44:00;;;;;;;2.70;1.50;;;16.90;99.10;;;;;;5031221;28;20452;-37
2022/10/09 10:47:05;;;;;;;3.33;1.53;;;16.90;99.40;;;;;;5031813;28;20439;-37
2022/10/09 10:49:31;;;;;;;4.07;1.90;;;16.80;99.60;;;;;;5029011;28;20448;-37
2022/10/09 10:52:42;;;;;;;4.53;1.90;;;16.70;99.30;;;;;;5028931;28;20932;-37
2022/10/09 10:55:48;;;;;;;1.90;1.63;;;16.70;99.80;;;;;;5030994;28;20513;-38
2022/10/09 10:58:13;;;;;;;1.70;1.40;;;16.70;99.10;;;;;;5030815;28;20486;-37
2022/10/09 11:00:50;;;;;;;1.60;1.50;;;16.80;99.20;;;;;;5031353;28;20469;-37
2022/10/09 11:03:34;;;;;;;5.40;1.60;;;16.80;98.60;;;;;;5031184;28;20189;-37
2022/10/09 11:06:12;;;;;;;3.63;1.27;;;16.80;98.70;;;;;;5031591;28;20974;-37
2022/10/09 11:09:04;;;;;;;6.07;1.90;;;16.80;98.60;;;;;;5031449;28;20939;-37
2022/10/09 11:11:46;;;;;;;3.90;1.67;;;16.90;98.30;;;;;;5031331;28;20483;-37
2022/10/09 11:14:24;;;;;;;3.63;1.87;;;17.00;98.50;;;;;;5030799;28;20427;-38
2022/10/09 11:16:52;;;;;;;2.40;1.60;;;17.00;98.50;;;;;;5031284;28;20511;-37
2022/10/09 11:19:49;;;;;;;1.60;1.50;;;17.20;98.60;;;;;;5031259;28;20476;-36
2022/10/09 11:23:07;;;;;;;4.90;2.03;;;17.20;97.50;;;;;;5019635;28;20405;-37
2022/10/09 11:25:40;;;;;;;2.67;1.57;;;17.40;97.60;;;;;;5030975;28;20772;-37
2022/10/09 11:28:13;;;;;;;3.70;1.63;;;17.40;97.60;;;;;;5030903;28;20456;-37
2022/10/09 11:30:49;;;;;;;2.70;1.67;;;17.50;97.30;;;;;;5031162;28;20437;-37
2022/10/09 11:33:39;;;;;;;3.10;1.67;;;17.70;96.70;;;;;;5030159;28;20413;-37
2022/10/09 11:36:26;;;;;;;2.20;1.40;;;17.70;96.20;;;;;;5030648;28;20580;-37
2022/10/09 11:38:59;;;;;;;2.50;1.30;;;17.90;96.50;;;;;;5030620;28;20729;-37
2022/10/09 11:41:27;;;;;;;1.73;1.20;;;17.90;95.70;;;;;;5031015;28;20429;-37
2022/10/09 11:44:18;;;;;;;3.23;1.80;;;18.00;95.30;;;;;;5030127;28;20425;-37
2022/10/09 11:47:21;;;;;;;2.97;1.60;;;18.00;94.60;;;;;;5030594;28;20413;-37
2022/10/09 11:50:11;;;;;;;4.13;1.60;;;17.90;94.80;;;;;;5030592;28;20421;-37
2022/10/09 11:52:42;;;;;;;2.47;1.47;;;18.00;95.00;;;;;;5030295;28;20436;-37
2022/10/09 11:55:20;;;;;;;3.77;1.30;;;18.00;95.00;;;;;;5028759;28;20433;-37
2022/10/09 11:57:46;;;;;;;2.90;1.83;;;18.10;94.70;;;;;;5030497;28;20419;-37
2022/10/09 12:00:14;;;;;;;2.20;1.60;;;18.10;93.60;;;;;;5044602;28;21116;-37
2022/10/09 12:02:41;;;;;;;3.53;1.70;;;18.00;93.70;;;;;;5034739;28;20461;-37
2022/10/09 12:05:44;;;;;;;3.03;1.50;;;17.80;93.60;;;;;;5030180;28;20441;-37
2022/10/09 12:08:23;;;;;;;5.57;1.60;;;17.90;94.70;;;;;;5009238;28;20446;-37
2022/10/09 12:10:53;;;;;;;2.60;1.37;;;17.90;94.70;;;;;;5017526;28;20413;-37
2022/10/09 12:13:37;;;;;;;3.03;1.93;;;18.00;94.30;;;;;;5031488;28;20516;-37
2022/10/09 12:16:05;;;;;;;3.20;1.60;;;18.20;94.00;;;;;;5050190;28;20458;-37
2022/10/09 12:18:43;;;;;;;2.83;1.57;;;18.20;94.30;;;;;;5050374;28;20908;-37
2022/10/09 12:21:40;;;;;;;2.90;1.80;;;18.30;94.50;;;;;;5036878;28;20912;-37
2022/10/09 12:24:12;;;;;;;1.70;1.60;;;18.40;94.60;;;;;;5027999;28;21101;-37
2022/10/09 12:26:40;;;;;;;3.53;1.73;;;18.50;94.70;;;;;;5028869;28;20428;-37
2022/10/09 12:29:12;;;;;;;3.30;2.10;;;18.50;94.20;;;;;;5028988;28;20457;-38
2022/10/09 12:31:40;;;;;;;1.73;1.50;;;18.50;92.60;;;;;;5029825;28;20417;-37
2022/10/09 12:34:23;;;;;;;5.00;2.27;;;18.50;92.70;;;;;;5029382;28;20482;-37
2022/10/09 12:36:48;;;;;;;3.60;1.50;;;18.40;93.20;;;;;;5029910;28;20477;-37
2022/10/09 12:39:22;;;;;;;1.80;1.50;;;18.50;93.40;;;;;;5028617;28;20468;-38
2022/10/09 12:41:53;;;;;;;3.37;1.50;;;18.60;91.80;;;;;;5028865;28;20182;-38
2022/10/09 12:44:29;;;;;;;5.60;1.73;;;18.60;92.60;;;;;;5029305;28;20483;-37
2022/10/09 12:47:04;;;;;;;1.97;1.43;;;18.50;92.90;;;;;;5028900;28;20412;-37
2022/10/09 12:49:30;;;;;;;3.33;1.57;;;18.50;93.00;;;;;;5029891;28;20424;-37
2022/10/09 12:51:57;;;;;;;2.00;1.43;;;18.40;93.20;;;;;;5029732;28;20452;-38
2022/10/09 12:54:24;;;;;;;5.30;1.60;;;18.40;92.80;;;;;;5027972;28;20464;-37
2022/10/09 12:56:51;;;;;;;2.73;1.50;;;18.40;92.80;;;;;;5029785;28;20425;-37
2022/10/09 12:59:18;;;;;;;3.60;1.43;;;18.50;92.50;;;;;;5029769;28;20507;-37
2022/10/09 13:01:45;;;;;;;3.70;1.37;;;18.60;92.60;;;;;;5029408;28;20487;-37
2022/10/09 13:04:25;;;;;;;2.43;1.77;;;18.50;92.60;;;;;;5029056;28;20413;-38
2022/10/09 13:06:51;;;;;;;3.40;1.63;;;18.50;93.40;;;;;;5029665;28;20425;-38
2022/10/09 13:09:21;;;;;;;2.20;1.40;;;18.60;93.20;;;;;;5029746;28;21008;-37
2022/10/09 13:11:55;;;;;;;2.60;1.33;;;18.70;93.10;;;;;;5029585;28;20859;-37